sensor_id;sensor_type;location;lat;lon;timestamp;P1;durP1;ratioP1;P2;durP2;ratioP2
78871;SDS011;68247;43.514;1.502;2023-08-21T00:02:20;12.57;;;4.17;;
78871;SDS011;68247;43.514;1.502;2023-08-21T00:04:46;12.15;;;4.55;;
78871;SDS011;68247;43.514;1.502;2023-08-21T00:07:11;11.97;;;3.93;;
78871;SDS011;68247;43.514;1.502;2023-08-21T00:09:37;11.00;;;4.05;;
78871;SDS011;68247;43.514;1.502;2023-08-21T00:12:03;9.57;;;3.90;;
78871;SDS011;68247;43.514;1.502;2023-08-21T00:14:28;10.55;;;4.18;;
78871;SDS011;68247;43.514;1.502;2023-08-21T00:16:54;9.47;;;3.93;;
78871;SDS011;68247;43.514;1.502;2023-08-21T00:19:19;11.23;;;3.97;;
78871;SDS011;68247;43.514;1.502;2023-08-21T00:21:45;11.30;;;3.73;;
78871;SDS011;68247;43.514;1.502;2023-08-21T00:24:10;12.65;;;4.40;;
78871;SDS011;68247;43.514;1.502;2023-08-21T00:26:36;12.53;;;4.47;;
78871;SDS011;68247;43.514;1.502;2023-08-21T00:29:01;14.57;;;4.30;;
78871;SDS011;68247;43.514;1.502;2023-08-21T00:31:27;11.13;;;3.75;;
78871;SDS011;68247;43.514;1.502;2023-08-21T00:33:52;11.03;;;3.60;;
78871;SDS011;68247;43.514;1.502;2023-08-21T00:36:18;14.07;;;4.13;;
78871;SDS011;68247;43.514;1.502;2023-08-21T00:38:44;10.00;;;3.80;;
78871;SDS011;68247;43.514;1.502;2023-08-21T00:41:11;10.27;;;4.00;;
78871;SDS011;68247;43.514;1.502;2023-08-21T00:43:37;11.43;;;3.75;;
78871;SDS011;68247;43.514;1.502;2023-08-21T00:46:02;12.60;;;4.07;;
78871;SDS011;68247;43.514;1.502;2023-08-21T00:48:28;10.10;;;3.85;;
78871;SDS011;68247;43.514;1.502;2023-08-21T00:50:53;13.13;;;4.10;;
78871;SDS011;68247;43.514;1.502;2023-08-21T00:53:19;10.33;;;3.60;;
78871;SDS011;68247;43.514;1.502;2023-08-21T00:55:44;9.40;;;3.87;;
78871;SDS011;68247;43.514;1.502;2023-08-21T00:58:10;10.63;;;3.73;;
78871;SDS011;68247;43.514;1.502;2023-08-21T01:00:37;11.60;;;4.18;;
78871;SDS011;68247;43.514;1.502;2023-08-21T01:03:03;9.68;;;3.80;;
78871;SDS011;68247;43.514;1.502;2023-08-21T01:05:29;10.43;;;3.70;;
78871;SDS011;68247;43.514;1.502;2023-08-21T01:08:05;11.27;;;3.70;;
78871;SDS011;68247;43.514;1.502;2023-08-21T01:16:39;10.55;;;3.65;;
78871;SDS011;68247;43.514;1.502;2023-08-21T01:19:08;6.03;;;3.33;;
78871;SDS011;68247;43.514;1.502;2023-08-21T01:21:35;10.10;;;3.90;;
78871;SDS011;68247;43.514;1.502;2023-08-21T01:24:00;11.55;;;4.13;;
78871;SDS011;68247;43.514;1.502;2023-08-21T01:26:26;9.63;;;3.40;;
78871;SDS011;68247;43.514;1.502;2023-08-21T01:28:51;11.13;;;3.73;;
78871;SDS011;68247;43.514;1.502;2023-08-21T01:33:48;13.25;;;3.97;;
78871;SDS011;68247;43.514;1.502;2023-08-21T01:36:16;9.63;;;3.90;;
78871;SDS011;68247;43.514;1.502;2023-08-21T01:38:42;11.40;;;3.60;;
78871;SDS011;68247;43.514;1.502;2023-08-21T01:41:08;10.05;;;4.00;;
78871;SDS011;68247;43.514;1.502;2023-08-21T01:43:33;8.93;;;4.13;;
78871;SDS011;68247;43.514;1.502;2023-08-21T01:46:00;12.45;;;3.58;;
78871;SDS011;68247;43.514;1.502;2023-08-21T01:48:26;9.70;;;3.60;;
78871;SDS011;68247;43.514;1.502;2023-08-21T01:50:51;14.18;;;3.80;;
78871;SDS011;68247;43.514;1.502;2023-08-21T01:53:17;10.10;;;3.70;;
78871;SDS011;68247;43.514;1.502;2023-08-21T01:55:42;8.03;;;3.80;;
78871;SDS011;68247;43.514;1.502;2023-08-21T01:58:08;7.83;;;3.80;;
78871;SDS011;68247;43.514;1.502;2023-08-21T02:00:33;9.10;;;3.67;;
78871;SDS011;68247;43.514;1.502;2023-08-21T02:02:58;10.13;;;3.83;;
78871;SDS011;68247;43.514;1.502;2023-08-21T02:05:24;6.83;;;3.07;;
78871;SDS011;68247;43.514;1.502;2023-08-21T02:07:49;7.83;;;3.30;;
78871;SDS011;68247;43.514;1.502;2023-08-21T02:10:15;11.23;;;3.70;;
78871;SDS011;68247;43.514;1.502;2023-08-21T02:12:40;10.18;;;3.78;;
78871;SDS011;68247;43.514;1.502;2023-08-21T02:15:06;7.07;;;3.83;;
78871;SDS011;68247;43.514;1.502;2023-08-21T02:17:31;9.98;;;3.63;;
78871;SDS011;68247;43.514;1.502;2023-08-21T02:19:57;9.67;;;3.70;;
78871;SDS011;68247;43.514;1.502;2023-08-21T02:22:22;8.00;;;3.43;;
78871;SDS011;68247;43.514;1.502;2023-08-21T02:24:48;10.73;;;3.97;;
78871;SDS011;68247;43.514;1.502;2023-08-21T02:27:13;9.88;;;3.58;;
78871;SDS011;68247;43.514;1.502;2023-08-21T02:29:39;12.03;;;3.97;;
78871;SDS011;68247;43.514;1.502;2023-08-21T02:32:04;9.90;;;3.53;;
78871;SDS011;68247;43.514;1.502;2023-08-21T02:34:29;9.03;;;3.67;;
78871;SDS011;68247;43.514;1.502;2023-08-21T02:36:55;8.80;;;3.78;;
78871;SDS011;68247;43.514;1.502;2023-08-21T02:39:20;10.83;;;3.57;;
78871;SDS011;68247;43.514;1.502;2023-08-21T02:41:46;9.80;;;3.67;;
78871;SDS011;68247;43.514;1.502;2023-08-21T02:44:11;8.43;;;3.80;;
78871;SDS011;68247;43.514;1.502;2023-08-21T02:46:37;10.00;;;3.83;;
78871;SDS011;68247;43.514;1.502;2023-08-21T02:49:02;13.57;;;4.17;;
78871;SDS011;68247;43.514;1.502;2023-08-21T02:51:28;11.80;;;3.90;;
78871;SDS011;68247;43.514;1.502;2023-08-21T02:53:53;11.20;;;3.63;;
78871;SDS011;68247;43.514;1.502;2023-08-21T02:56:19;8.90;;;3.45;;
78871;SDS011;68247;43.514;1.502;2023-08-21T02:58:44;7.67;;;3.20;;
78871;SDS011;68247;43.514;1.502;2023-08-21T03:01:09;9.37;;;3.50;;
78871;SDS011;68247;43.514;1.502;2023-08-21T03:03:35;10.95;;;3.80;;
78871;SDS011;68247;43.514;1.502;2023-08-21T03:06:01;10.90;;;3.60;;
78871;SDS011;68247;43.514;1.502;2023-08-21T03:08:26;9.30;;;3.55;;
78871;SDS011;68247;43.514;1.502;2023-08-21T03:10:52;8.60;;;3.00;;
78871;SDS011;68247;43.514;1.502;2023-08-21T03:13:17;7.43;;;3.40;;
78871;SDS011;68247;43.514;1.502;2023-08-21T03:15:43;9.80;;;3.77;;
78871;SDS011;68247;43.514;1.502;2023-08-21T03:18:08;9.70;;;3.78;;
78871;SDS011;68247;43.514;1.502;2023-08-21T03:20:33;8.27;;;3.37;;
78871;SDS011;68247;43.514;1.502;2023-08-21T03:23:00;9.90;;;3.57;;
78871;SDS011;68247;43.514;1.502;2023-08-21T03:25:25;8.43;;;3.60;;
78871;SDS011;68247;43.514;1.502;2023-08-21T03:27:52;10.38;;;3.65;;
78871;SDS011;68247;43.514;1.502;2023-08-21T03:30:18;9.10;;;3.60;;
78871;SDS011;68247;43.514;1.502;2023-08-21T03:32:43;8.07;;;3.53;;
78871;SDS011;68247;43.514;1.502;2023-08-21T03:35:09;7.80;;;3.43;;
78871;SDS011;68247;43.514;1.502;2023-08-21T03:37:34;7.40;;;3.50;;
78871;SDS011;68247;43.514;1.502;2023-08-21T03:40:01;9.40;;;3.60;;
78871;SDS011;68247;43.514;1.502;2023-08-21T03:42:28;9.27;;;3.80;;
78871;SDS011;68247;43.514;1.502;2023-08-21T03:44:53;9.23;;;3.30;;
78871;SDS011;68247;43.514;1.502;2023-08-21T03:47:18;9.45;;;3.60;;
78871;SDS011;68247;43.514;1.502;2023-08-21T03:49:44;10.30;;;3.97;;
78871;SDS011;68247;43.514;1.502;2023-08-21T03:52:09;8.60;;;3.37;;
78871;SDS011;68247;43.514;1.502;2023-08-21T03:54:35;5.73;;;3.20;;
78871;SDS011;68247;43.514;1.502;2023-08-21T03:57:00;7.53;;;3.57;;
78871;SDS011;68247;43.514;1.502;2023-08-21T03:59:25;9.70;;;3.50;;
78871;SDS011;68247;43.514;1.502;2023-08-21T04:01:52;8.70;;;3.70;;
78871;SDS011;68247;43.514;1.502;2023-08-21T04:04:18;9.27;;;3.50;;
78871;SDS011;68247;43.514;1.502;2023-08-21T04:06:44;10.43;;;4.03;;
78871;SDS011;68247;43.514;1.502;2023-08-21T04:09:09;9.00;;;3.50;;
78871;SDS011;68247;43.514;1.502;2023-08-21T04:11:35;9.68;;;3.63;;
78871;SDS011;68247;43.514;1.502;2023-08-21T04:14:01;7.90;;;3.40;;
78871;SDS011;68247;43.514;1.502;2023-08-21T04:16:27;8.38;;;3.63;;
78871;SDS011;68247;43.514;1.502;2023-08-21T04:18:53;10.23;;;3.88;;
78871;SDS011;68247;43.514;1.502;2023-08-21T04:21:18;7.07;;;3.63;;
78871;SDS011;68247;43.514;1.502;2023-08-21T04:23:44;7.90;;;3.80;;
78871;SDS011;68247;43.514;1.502;2023-08-21T04:26:11;9.52;;;4.10;;
78871;SDS011;68247;43.514;1.502;2023-08-21T04:28:36;9.83;;;4.23;;
78871;SDS011;68247;43.514;1.502;2023-08-21T04:31:05;11.63;;;4.05;;
78871;SDS011;68247;43.514;1.502;2023-08-21T04:33:31;10.83;;;4.00;;
78871;SDS011;68247;43.514;1.502;2023-08-21T04:35:57;10.43;;;3.80;;
78871;SDS011;68247;43.514;1.502;2023-08-21T04:38:22;8.93;;;4.03;;
78871;SDS011;68247;43.514;1.502;2023-08-21T04:40:48;10.30;;;3.97;;
78871;SDS011;68247;43.514;1.502;2023-08-21T04:43:13;10.93;;;4.60;;
78871;SDS011;68247;43.514;1.502;2023-08-21T04:45:45;10.80;;;4.27;;
78871;SDS011;68247;43.514;1.502;2023-08-21T04:48:12;12.25;;;4.18;;
78871;SDS011;68247;43.514;1.502;2023-08-21T04:50:37;9.63;;;4.33;;
78871;SDS011;68247;43.514;1.502;2023-08-21T04:53:03;9.43;;;4.60;;
78871;SDS011;68247;43.514;1.502;2023-08-21T04:55:28;9.80;;;4.07;;
78871;SDS011;68247;43.514;1.502;2023-08-21T04:57:53;8.88;;;3.95;;
78871;SDS011;68247;43.514;1.502;2023-08-21T05:00:19;10.00;;;4.10;;
78871;SDS011;68247;43.514;1.502;2023-08-21T05:02:44;11.77;;;4.30;;
78871;SDS011;68247;43.514;1.502;2023-08-21T05:05:10;9.23;;;3.87;;
78871;SDS011;68247;43.514;1.502;2023-08-21T05:07:35;8.00;;;3.43;;
78871;SDS011;68247;43.514;1.502;2023-08-21T05:10:01;9.60;;;3.90;;
78871;SDS011;68247;43.514;1.502;2023-08-21T05:12:26;10.73;;;3.60;;
78871;SDS011;68247;43.514;1.502;2023-08-21T05:14:52;9.68;;;3.25;;
78871;SDS011;68247;43.514;1.502;2023-08-21T05:17:18;9.87;;;3.80;;
78871;SDS011;68247;43.514;1.502;2023-08-21T05:19:43;8.75;;;3.60;;
78871;SDS011;68247;43.514;1.502;2023-08-21T05:22:09;11.80;;;4.20;;
78871;SDS011;68247;43.514;1.502;2023-08-21T05:24:34;9.63;;;3.60;;
78871;SDS011;68247;43.514;1.502;2023-08-21T05:27:00;10.93;;;3.73;;
78871;SDS011;68247;43.514;1.502;2023-08-21T05:29:25;11.77;;;3.72;;
78871;SDS011;68247;43.514;1.502;2023-08-21T05:31:50;11.20;;;3.53;;
78871;SDS011;68247;43.514;1.502;2023-08-21T05:34:16;10.37;;;3.80;;
78871;SDS011;68247;43.514;1.502;2023-08-21T05:36:41;10.20;;;4.30;;
78871;SDS011;68247;43.514;1.502;2023-08-21T05:39:07;8.85;;;3.63;;
78871;SDS011;68247;43.514;1.502;2023-08-21T05:41:33;10.03;;;3.53;;
78871;SDS011;68247;43.514;1.502;2023-08-21T05:43:58;11.68;;;4.47;;
78871;SDS011;68247;43.514;1.502;2023-08-21T05:46:23;10.33;;;3.53;;
78871;SDS011;68247;43.514;1.502;2023-08-21T05:48:49;13.07;;;5.77;;
78871;SDS011;68247;43.514;1.502;2023-08-21T05:51:14;9.57;;;3.63;;
78871;SDS011;68247;43.514;1.502;2023-08-21T05:53:40;9.13;;;3.77;;
78871;SDS011;68247;43.514;1.502;2023-08-21T05:56:05;11.40;;;3.33;;
78871;SDS011;68247;43.514;1.502;2023-08-21T05:58:30;10.57;;;3.60;;
78871;SDS011;68247;43.514;1.502;2023-08-21T06:00:58;9.25;;;3.70;;
78871;SDS011;68247;43.514;1.502;2023-08-21T06:03:23;13.47;;;3.83;;
78871;SDS011;68247;43.514;1.502;2023-08-21T06:05:49;9.50;;;3.90;;
78871;SDS011;68247;43.514;1.502;2023-08-21T06:08:14;11.23;;;3.73;;
78871;SDS011;68247;43.514;1.502;2023-08-21T06:10:40;10.93;;;3.93;;
78871;SDS011;68247;43.514;1.502;2023-08-21T06:13:05;11.00;;;3.75;;
78871;SDS011;68247;43.514;1.502;2023-08-21T06:15:31;9.97;;;3.93;;
78871;SDS011;68247;43.514;1.502;2023-08-21T06:17:57;8.93;;;4.10;;
78871;SDS011;68247;43.514;1.502;2023-08-21T06:20:23;9.57;;;3.60;;
78871;SDS011;68247;43.514;1.502;2023-08-21T06:22:49;8.68;;;3.58;;
78871;SDS011;68247;43.514;1.502;2023-08-21T06:25:15;11.40;;;4.30;;
78871;SDS011;68247;43.514;1.502;2023-08-21T06:27:40;11.30;;;4.30;;
78871;SDS011;68247;43.514;1.502;2023-08-21T06:30:06;9.43;;;3.67;;
78871;SDS011;68247;43.514;1.502;2023-08-21T06:32:32;7.53;;;3.80;;
78871;SDS011;68247;43.514;1.502;2023-08-21T06:34:57;9.68;;;3.83;;
78871;SDS011;68247;43.514;1.502;2023-08-21T06:37:22;11.30;;;4.23;;
78871;SDS011;68247;43.514;1.502;2023-08-21T06:39:48;11.30;;;3.77;;
78871;SDS011;68247;43.514;1.502;2023-08-21T06:42:13;10.93;;;3.87;;
78871;SDS011;68247;43.514;1.502;2023-08-21T06:44:39;10.57;;;4.03;;
78871;SDS011;68247;43.514;1.502;2023-08-21T06:47:05;10.82;;;4.05;;
78871;SDS011;68247;43.514;1.502;2023-08-21T06:49:30;8.80;;;3.90;;
78871;SDS011;68247;43.514;1.502;2023-08-21T06:51:56;11.03;;;4.00;;
78871;SDS011;68247;43.514;1.502;2023-08-21T06:54:21;9.17;;;3.77;;
78871;SDS011;68247;43.514;1.502;2023-08-21T06:56:47;9.80;;;3.73;;
78871;SDS011;68247;43.514;1.502;2023-08-21T06:59:13;11.45;;;3.95;;
78871;SDS011;68247;43.514;1.502;2023-08-21T07:01:38;9.33;;;3.87;;
78871;SDS011;68247;43.514;1.502;2023-08-21T07:04:04;6.68;;;3.60;;
78871;SDS011;68247;43.514;1.502;2023-08-21T07:06:30;10.33;;;3.57;;
78871;SDS011;68247;43.514;1.502;2023-08-21T07:08:55;9.38;;;3.30;;
78871;SDS011;68247;43.514;1.502;2023-08-21T07:11:21;12.30;;;3.40;;
78871;SDS011;68247;43.514;1.502;2023-08-21T07:13:46;10.37;;;3.73;;
78871;SDS011;68247;43.514;1.502;2023-08-21T07:16:12;9.27;;;3.70;;
78871;SDS011;68247;43.514;1.502;2023-08-21T07:18:37;10.50;;;3.63;;
78871;SDS011;68247;43.514;1.502;2023-08-21T07:21:03;10.83;;;3.60;;
78871;SDS011;68247;43.514;1.502;2023-08-21T07:23:29;9.25;;;3.55;;
78871;SDS011;68247;43.514;1.502;2023-08-21T07:25:57;10.40;;;3.63;;
78871;SDS011;68247;43.514;1.502;2023-08-21T07:28:22;8.73;;;3.20;;
78871;SDS011;68247;43.514;1.502;2023-08-21T07:30:48;8.87;;;3.30;;
78871;SDS011;68247;43.514;1.502;2023-08-21T07:33:19;11.43;;;3.17;;
78871;SDS011;68247;43.514;1.502;2023-08-21T07:35:45;9.17;;;3.07;;
78871;SDS011;68247;43.514;1.502;2023-08-21T07:38:10;8.17;;;3.50;;
78871;SDS011;68247;43.514;1.502;2023-08-21T07:40:36;7.68;;;3.20;;
78871;SDS011;68247;43.514;1.502;2023-08-21T07:43:01;10.30;;;3.47;;
78871;SDS011;68247;43.514;1.502;2023-08-21T07:45:27;10.27;;;3.20;;
78871;SDS011;68247;43.514;1.502;2023-08-21T07:47:52;11.45;;;3.13;;
78871;SDS011;68247;43.514;1.502;2023-08-21T07:50:18;10.03;;;3.00;;
78871;SDS011;68247;43.514;1.502;2023-08-21T07:52:43;9.20;;;3.70;;
78871;SDS011;68247;43.514;1.502;2023-08-21T07:55:09;8.40;;;3.10;;
78871;SDS011;68247;43.514;1.502;2023-08-21T07:57:35;8.60;;;3.20;;
78871;SDS011;68247;43.514;1.502;2023-08-21T08:00:00;7.63;;;3.35;;
78871;SDS011;68247;43.514;1.502;2023-08-21T08:02:26;9.77;;;2.87;;
78871;SDS011;68247;43.514;1.502;2023-08-21T08:04:51;8.33;;;3.03;;
78871;SDS011;68247;43.514;1.502;2023-08-21T08:07:17;8.80;;;3.38;;
78871;SDS011;68247;43.514;1.502;2023-08-21T08:09:42;8.67;;;3.20;;
78871;SDS011;68247;43.514;1.502;2023-08-21T08:12:08;7.55;;;3.00;;
78871;SDS011;68247;43.514;1.502;2023-08-21T08:14:34;9.93;;;2.93;;
78871;SDS011;68247;43.514;1.502;2023-08-21T08:17:00;7.75;;;3.03;;
78871;SDS011;68247;43.514;1.502;2023-08-21T08:19:25;7.60;;;2.90;;
78871;SDS011;68247;43.514;1.502;2023-08-21T08:21:51;7.05;;;3.08;;
78871;SDS011;68247;43.514;1.502;2023-08-21T08:24:16;8.63;;;3.20;;
78871;SDS011;68247;43.514;1.502;2023-08-21T08:26:42;9.00;;;3.20;;
78871;SDS011;68247;43.514;1.502;2023-08-21T08:29:08;8.85;;;2.97;;
78871;SDS011;68247;43.514;1.502;2023-08-21T08:31:34;8.00;;;2.90;;
78871;SDS011;68247;43.514;1.502;2023-08-21T08:33:59;8.60;;;3.10;;
78871;SDS011;68247;43.514;1.502;2023-08-21T08:36:25;8.60;;;3.27;;
78871;SDS011;68247;43.514;1.502;2023-08-21T08:38:50;6.57;;;2.95;;
78871;SDS011;68247;43.514;1.502;2023-08-21T08:41:25;9.63;;;3.20;;
78871;SDS011;68247;43.514;1.502;2023-08-21T08:43:56;7.50;;;2.80;;
78871;SDS011;68247;43.514;1.502;2023-08-21T08:46:23;7.83;;;3.03;;
78871;SDS011;68247;43.514;1.502;2023-08-21T08:48:50;10.25;;;3.25;;
78871;SDS011;68247;43.514;1.502;2023-08-21T08:51:16;10.15;;;3.55;;
78871;SDS011;68247;43.514;1.502;2023-08-21T08:53:42;10.80;;;3.93;;
78871;SDS011;68247;43.514;1.502;2023-08-21T08:56:08;11.13;;;3.58;;
78871;SDS011;68247;43.514;1.502;2023-08-21T08:58:33;9.67;;;3.30;;
78871;SDS011;68247;43.514;1.502;2023-08-21T09:00:59;11.68;;;3.20;;
78871;SDS011;68247;43.514;1.502;2023-08-21T09:03:24;9.13;;;2.90;;
78871;SDS011;68247;43.514;1.502;2023-08-21T09:05:50;8.43;;;3.00;;
78871;SDS011;68247;43.514;1.502;2023-08-21T09:08:15;8.88;;;2.90;;
78871;SDS011;68247;43.514;1.502;2023-08-21T09:10:41;7.33;;;3.00;;
78871;SDS011;68247;43.514;1.502;2023-08-21T09:13:11;9.48;;;3.38;;
78871;SDS011;68247;43.514;1.502;2023-08-21T09:15:38;9.30;;;2.90;;
78871;SDS011;68247;43.514;1.502;2023-08-21T09:18:08;7.15;;;3.47;;
78871;SDS011;68247;43.514;1.502;2023-08-21T09:20:38;6.38;;;3.17;;
78871;SDS011;68247;43.514;1.502;2023-08-21T09:23:03;9.30;;;3.60;;
78871;SDS011;68247;43.514;1.502;2023-08-21T09:25:33;7.93;;;3.50;;
78871;SDS011;68247;43.514;1.502;2023-08-21T09:27:59;8.73;;;3.85;;
78871;SDS011;68247;43.514;1.502;2023-08-21T09:30:25;10.70;;;3.67;;
78871;SDS011;68247;43.514;1.502;2023-08-21T09:32:52;11.35;;;4.30;;
78871;SDS011;68247;43.514;1.502;2023-08-21T09:35:21;7.60;;;3.38;;
78871;SDS011;68247;43.514;1.502;2023-08-21T09:37:47;6.82;;;3.40;;
78871;SDS011;68247;43.514;1.502;2023-08-21T09:40:14;8.03;;;3.33;;
78871;SDS011;68247;43.514;1.502;2023-08-21T09:42:41;8.30;;;3.10;;
78871;SDS011;68247;43.514;1.502;2023-08-21T09:45:06;6.68;;;3.22;;
78871;SDS011;68247;43.514;1.502;2023-08-21T09:47:33;8.02;;;3.50;;
78871;SDS011;68247;43.514;1.502;2023-08-21T09:49:59;7.80;;;3.23;;
78871;SDS011;68247;43.514;1.502;2023-08-21T09:52:24;8.90;;;3.47;;
78871;SDS011;68247;43.514;1.502;2023-08-21T09:54:52;8.88;;;3.13;;
78871;SDS011;68247;43.514;1.502;2023-08-21T09:57:18;8.00;;;3.35;;
78871;SDS011;68247;43.514;1.502;2023-08-21T09:59:47;8.13;;;3.40;;
78871;SDS011;68247;43.514;1.502;2023-08-21T10:02:16;8.23;;;3.70;;
78871;SDS011;68247;43.514;1.502;2023-08-21T10:04:41;8.70;;;3.58;;
78871;SDS011;68247;43.514;1.502;2023-08-21T10:07:08;7.22;;;3.22;;
78871;SDS011;68247;43.514;1.502;2023-08-21T10:09:34;10.17;;;3.70;;
78871;SDS011;68247;43.514;1.502;2023-08-21T10:12:00;12.13;;;3.47;;
78871;SDS011;68247;43.514;1.502;2023-08-21T10:14:25;8.90;;;3.40;;
78871;SDS011;68247;43.514;1.502;2023-08-21T10:16:52;9.43;;;3.60;;
78871;SDS011;68247;43.514;1.502;2023-08-21T10:19:18;8.05;;;3.30;;
78871;SDS011;68247;43.514;1.502;2023-08-21T10:21:45;11.77;;;3.63;;
78871;SDS011;68247;43.514;1.502;2023-08-21T10:24:11;8.68;;;3.33;;
78871;SDS011;68247;43.514;1.502;2023-08-21T10:26:40;11.37;;;3.50;;
78871;SDS011;68247;43.514;1.502;2023-08-21T10:29:05;15.07;;;3.75;;
78871;SDS011;68247;43.514;1.502;2023-08-21T10:31:35;11.43;;;3.88;;
78871;SDS011;68247;43.514;1.502;2023-08-21T10:34:02;10.90;;;3.37;;
78871;SDS011;68247;43.514;1.502;2023-08-21T10:39:03;8.25;;;3.90;;
78871;SDS011;68247;43.514;1.502;2023-08-21T10:41:29;9.50;;;3.65;;
78871;SDS011;68247;43.514;1.502;2023-08-21T10:43:55;9.80;;;3.60;;
78871;SDS011;68247;43.514;1.502;2023-08-21T10:46:20;9.57;;;3.47;;
78871;SDS011;68247;43.514;1.502;2023-08-21T10:48:46;9.70;;;3.40;;
78871;SDS011;68247;43.514;1.502;2023-08-21T10:51:11;7.80;;;3.40;;
78871;SDS011;68247;43.514;1.502;2023-08-21T10:53:38;7.85;;;3.50;;
78871;SDS011;68247;43.514;1.502;2023-08-21T10:56:05;9.18;;;3.97;;
78871;SDS011;68247;43.514;1.502;2023-08-21T10:58:44;6.87;;;3.20;;
78871;SDS011;68247;43.514;1.502;2023-08-21T11:01:15;9.18;;;3.95;;
78871;SDS011;68247;43.514;1.502;2023-08-21T11:03:40;7.93;;;3.40;;
78871;SDS011;68247;43.514;1.502;2023-08-21T11:06:09;7.33;;;3.70;;
78871;SDS011;68247;43.514;1.502;2023-08-21T11:08:35;8.38;;;3.30;;
78871;SDS011;68247;43.514;1.502;2023-08-21T11:11:01;7.32;;;3.40;;
78871;SDS011;68247;43.514;1.502;2023-08-21T11:13:28;11.77;;;3.20;;
78871;SDS011;68247;43.514;1.502;2023-08-21T11:16:00;8.53;;;4.17;;
78871;SDS011;68247;43.514;1.502;2023-08-21T11:18:30;7.13;;;4.10;;
78871;SDS011;68247;43.514;1.502;2023-08-21T11:21:02;9.63;;;3.70;;
78871;SDS011;68247;43.514;1.502;2023-08-21T11:23:33;6.45;;;3.30;;
78871;SDS011;68247;43.514;1.502;2023-08-21T11:26:00;6.40;;;3.23;;
78871;SDS011;68247;43.514;1.502;2023-08-21T11:28:27;8.07;;;3.35;;
78871;SDS011;68247;43.514;1.502;2023-08-21T11:30:54;9.05;;;3.25;;
78871;SDS011;68247;43.514;1.502;2023-08-21T11:33:20;6.22;;;3.35;;
78871;SDS011;68247;43.514;1.502;2023-08-21T11:35:45;6.17;;;3.20;;
78871;SDS011;68247;43.514;1.502;2023-08-21T11:38:17;5.47;;;3.23;;
78871;SDS011;68247;43.514;1.502;2023-08-21T11:40:54;9.10;;;3.75;;
78871;SDS011;68247;43.514;1.502;2023-08-21T11:43:20;9.13;;;3.35;;
78871;SDS011;68247;43.514;1.502;2023-08-21T11:45:46;9.23;;;3.93;;
78871;SDS011;68247;43.514;1.502;2023-08-21T11:48:12;5.78;;;3.72;;
78871;SDS011;68247;43.514;1.502;2023-08-21T11:50:37;5.93;;;3.53;;
78871;SDS011;68247;43.514;1.502;2023-08-21T11:53:04;5.80;;;3.60;;
78871;SDS011;68247;43.514;1.502;2023-08-21T11:55:30;6.32;;;3.50;;
78871;SDS011;68247;43.514;1.502;2023-08-21T11:57:56;6.73;;;3.60;;
78871;SDS011;68247;43.514;1.502;2023-08-21T12:00:28;7.60;;;4.20;;
78871;SDS011;68247;43.514;1.502;2023-08-21T12:02:55;5.03;;;3.45;;
78871;SDS011;68247;43.514;1.502;2023-08-21T12:05:21;8.07;;;3.50;;
78871;SDS011;68247;43.514;1.502;2023-08-21T12:07:47;7.83;;;3.70;;
78871;SDS011;68247;43.514;1.502;2023-08-21T12:10:12;6.00;;;3.50;;
78871;SDS011;68247;43.514;1.502;2023-08-21T12:12:38;6.78;;;3.60;;
78871;SDS011;68247;43.514;1.502;2023-08-21T12:15:03;6.77;;;3.90;;
78871;SDS011;68247;43.514;1.502;2023-08-21T12:17:29;6.70;;;3.57;;
78871;SDS011;68247;43.514;1.502;2023-08-21T12:19:54;5.43;;;3.70;;
78871;SDS011;68247;43.514;1.502;2023-08-21T12:22:20;8.17;;;3.90;;
78871;SDS011;68247;43.514;1.502;2023-08-21T12:24:45;6.90;;;4.00;;
78871;SDS011;68247;43.514;1.502;2023-08-21T12:27:11;6.03;;;4.03;;
78871;SDS011;68247;43.514;1.502;2023-08-21T12:29:36;7.57;;;3.93;;
78871;SDS011;68247;43.514;1.502;2023-08-21T12:32:01;6.20;;;4.18;;
78871;SDS011;68247;43.514;1.502;2023-08-21T12:34:28;5.97;;;3.77;;
78871;SDS011;68247;43.514;1.502;2023-08-21T12:36:53;6.65;;;3.90;;
78871;SDS011;68247;43.514;1.502;2023-08-21T12:39:19;7.03;;;4.60;;
78871;SDS011;68247;43.514;1.502;2023-08-21T12:41:45;8.07;;;4.60;;
78871;SDS011;68247;43.514;1.502;2023-08-21T12:44:10;6.75;;;4.53;;
78871;SDS011;68247;43.514;1.502;2023-08-21T12:46:36;8.20;;;4.60;;
78871;SDS011;68247;43.514;1.502;2023-08-21T12:49:02;6.63;;;4.00;;
78871;SDS011;68247;43.514;1.502;2023-08-21T12:51:28;6.28;;;3.90;;
78871;SDS011;68247;43.514;1.502;2023-08-21T12:53:54;10.65;;;4.50;;
78871;SDS011;68247;43.514;1.502;2023-08-21T12:56:19;7.63;;;4.73;;
78871;SDS011;68247;43.514;1.502;2023-08-21T12:58:48;6.63;;;4.15;;
78871;SDS011;68247;43.514;1.502;2023-08-21T13:01:13;6.33;;;4.07;;
78871;SDS011;68247;43.514;1.502;2023-08-21T13:03:43;6.50;;;4.57;;
78871;SDS011;68247;43.514;1.502;2023-08-21T13:06:11;5.07;;;4.07;;
78871;SDS011;68247;43.514;1.502;2023-08-21T13:08:37;6.95;;;4.10;;
78871;SDS011;68247;43.514;1.502;2023-08-21T13:11:03;5.83;;;3.90;;
78871;SDS011;68247;43.514;1.502;2023-08-21T13:13:30;6.25;;;4.28;;
78871;SDS011;68247;43.514;1.502;2023-08-21T13:15:55;5.37;;;4.30;;
78871;SDS011;68247;43.514;1.502;2023-08-21T13:18:21;6.93;;;4.33;;
78871;SDS011;68247;43.514;1.502;2023-08-21T13:20:46;7.03;;;4.45;;
78871;SDS011;68247;43.514;1.502;2023-08-21T13:23:12;6.57;;;5.17;;
78871;SDS011;68247;43.514;1.502;2023-08-21T13:25:37;7.17;;;5.47;;
78871;SDS011;68247;43.514;1.502;2023-08-21T13:28:03;7.03;;;4.45;;
78871;SDS011;68247;43.514;1.502;2023-08-21T13:30:29;6.53;;;4.95;;
78871;SDS011;68247;43.514;1.502;2023-08-21T13:32:55;5.97;;;4.88;;
78871;SDS011;68247;43.514;1.502;2023-08-21T13:35:20;7.67;;;4.80;;
78871;SDS011;68247;43.514;1.502;2023-08-21T13:37:47;5.85;;;5.05;;
78871;SDS011;68247;43.514;1.502;2023-08-21T13:40:13;7.47;;;5.13;;
78871;SDS011;68247;43.514;1.502;2023-08-21T13:42:41;10.05;;;5.15;;
78871;SDS011;68247;43.514;1.502;2023-08-21T13:45:09;6.25;;;4.97;;
78871;SDS011;68247;43.514;1.502;2023-08-21T13:47:41;6.70;;;5.22;;
78871;SDS011;68247;43.514;1.502;2023-08-21T13:50:12;6.67;;;5.00;;
78871;SDS011;68247;43.514;1.502;2023-08-21T13:52:38;6.75;;;5.20;;
78871;SDS011;68247;43.514;1.502;2023-08-21T13:55:06;5.65;;;5.03;;
78871;SDS011;68247;43.514;1.502;2023-08-21T13:57:32;7.35;;;4.75;;
78871;SDS011;68247;43.514;1.502;2023-08-21T13:59:58;8.00;;;4.97;;
78871;SDS011;68247;43.514;1.502;2023-08-21T14:02:25;6.93;;;4.68;;
78871;SDS011;68247;43.514;1.502;2023-08-21T14:04:50;6.57;;;4.90;;
78871;SDS011;68247;43.514;1.502;2023-08-21T14:07:16;5.60;;;4.77;;
78871;SDS011;68247;43.514;1.502;2023-08-21T14:09:41;7.80;;;4.93;;
78871;SDS011;68247;43.514;1.502;2023-08-21T14:12:07;5.53;;;4.57;;
78871;SDS011;68247;43.514;1.502;2023-08-21T14:14:33;6.30;;;4.80;;
78871;SDS011;68247;43.514;1.502;2023-08-21T14:17:00;7.20;;;4.90;;
78871;SDS011;68247;43.514;1.502;2023-08-21T14:19:25;5.67;;;5.07;;
78871;SDS011;68247;43.514;1.502;2023-08-21T14:21:51;9.57;;;4.80;;
78871;SDS011;68247;43.514;1.502;2023-08-21T14:24:16;6.03;;;5.20;;
78871;SDS011;68247;43.514;1.502;2023-08-21T14:26:42;8.40;;;5.77;;
78871;SDS011;68247;43.514;1.502;2023-08-21T14:29:07;7.28;;;5.28;;
78871;SDS011;68247;43.514;1.502;2023-08-21T14:31:33;5.80;;;5.13;;
78871;SDS011;68247;43.514;1.502;2023-08-21T14:33:58;6.70;;;5.13;;
78871;SDS011;68247;43.514;1.502;2023-08-21T14:36:24;7.00;;;5.47;;
78871;SDS011;68247;43.514;1.502;2023-08-21T14:38:49;7.82;;;5.57;;
78871;SDS011;68247;43.514;1.502;2023-08-21T14:41:15;9.43;;;5.63;;
78871;SDS011;68247;43.514;1.502;2023-08-21T14:43:41;6.30;;;5.43;;
78871;SDS011;68247;43.514;1.502;2023-08-21T14:46:07;7.83;;;5.60;;
78871;SDS011;68247;43.514;1.502;2023-08-21T14:48:32;6.13;;;4.70;;